createdAt,value
2022-10-09T00:03:22.114Z,26.87
2022-10-09T00:23:22.098Z,26.87
2022-10-09T01:03:22.093Z,26.87
2022-10-09T01:23:21.798Z,26.88
2022-10-09T02:03:22.054Z,26.87
2022-10-09T02:23:22.058Z,26.87
2022-10-09T02:43:22.038Z,26.87
2022-10-09T03:03:22.032Z,26.87
2022-10-09T03:23:22.051Z,26.87
2022-10-09T03:43:22.016Z,26.87
2022-10-09T04:03:21.735Z,26.87
2022-10-09T04:43:21.976Z,26.87
2022-10-09T05:03:22.003Z,26.87
2022-10-09T06:03:21.978Z,26.87
2022-10-09T07:03:21.967Z,26.87
2022-10-09T07:23:21.949Z,26.87
2022-10-09T09:03:21.829Z,26.88
2022-10-09T10:03:21.735Z,26.84
2022-10-09T10:23:21.726Z,26.81
2022-10-09T10:43:21.663Z,26.79
2022-10-09T11:03:21.700Z,26.77
2022-10-09T11:23:21.334Z,26.73
2022-10-09T11:43:21.571Z,26.69
2022-10-09T12:03:21.576Z,26.65
2022-10-09T12:23:26.522Z,26.62
2022-10-09T12:43:21.471Z,26.58
2022-10-09T13:03:21.474Z,26.54
2022-10-09T13:23:21.434Z,26.49
2022-10-09T13:43:21.376Z,26.46
2022-10-09T14:03:21.091Z,26.42
2022-10-09T14:23:21.302Z,26.37
2022-10-09T14:43:21.250Z,26.35
2022-10-09T15:03:20.976Z,26.32
2022-10-09T15:23:21.211Z,26.28
2022-10-09T15:43:21.177Z,26.25
2022-10-09T16:03:21.142Z,26.22
2022-10-09T16:23:20.838Z,26.21
2022-10-09T16:43:21.086Z,26.2
2022-10-09T17:03:21.053Z,26.19
2022-10-09T17:23:21.042Z,26.18
2022-10-09T17:43:21.011Z,26.16
2022-10-09T18:03:21.007Z,26.15
2022-10-09T18:23:22.788Z,26.15
2022-10-09T18:43:20.692Z,26.14
2022-10-09T19:03:20.951Z,26.13
2022-10-09T19:23:20.917Z,26.13
2022-10-09T19:43:20.918Z,26.13
2022-10-09T20:03:20.915Z,26.13
2022-10-09T20:23:20.872Z,26.12
2022-10-09T20:43:20.625Z,26.12
2022-10-09T21:03:20.924Z,26.12
2022-10-09T21:23:20.889Z,26.12
2022-10-09T22:03:20.848Z,26.12
2022-10-09T22:23:20.832Z,26.12
2022-10-09T22:43:20.843Z,26.12
2022-10-09T23:03:20.813Z,26.12
2022-10-09T23:23:20.809Z,26.12
2022-10-09T23:43:20.789Z,26.12
